sensor_id;sensor_type;location;lat;lon;timestamp;temperature;humidity
46676;DHT22;32412;51.478;5.694;2023-12-20T00:01:20;6.90;99.90
46676;DHT22;32412;51.478;5.694;2023-12-20T00:03:46;6.80;99.90
46676;DHT22;32412;51.478;5.694;2023-12-20T00:06:12;6.70;99.90
46676;DHT22;32412;51.478;5.694;2023-12-20T00:08:37;6.70;99.90
46676;DHT22;32412;51.478;5.694;2023-12-20T00:11:03;6.70;99.90
46676;DHT22;32412;51.478;5.694;2023-12-20T00:13:29;6.70;99.90
46676;DHT22;32412;51.478;5.694;2023-12-20T00:15:54;6.60;99.90
46676;DHT22;32412;51.478;5.694;2023-12-20T00:18:20;6.60;99.90
46676;DHT22;32412;51.478;5.694;2023-12-20T00:20:45;6.60;99.90
46676;DHT22;32412;51.478;5.694;2023-12-20T00:23:11;6.40;99.90
46676;DHT22;32412;51.478;5.694;2023-12-20T00:25:37;6.40;99.90
46676;DHT22;32412;51.478;5.694;2023-12-20T00:28:03;6.30;99.90
46676;DHT22;32412;51.478;5.694;2023-12-20T00:30:28;6.20;99.90
46676;DHT22;32412;51.478;5.694;2023-12-20T00:32:55;6.30;99.90
46676;DHT22;32412;51.478;5.694;2023-12-20T00:35:20;6.30;99.90
46676;DHT22;32412;51.478;5.694;2023-12-20T00:37:46;6.20;99.90
46676;DHT22;32412;51.478;5.694;2023-12-20T00:40:12;6.10;99.90
46676;DHT22;32412;51.478;5.694;2023-12-20T00:42:37;6.20;99.90
46676;DHT22;32412;51.478;5.694;2023-12-20T00:45:03;6.10;99.90
46676;DHT22;32412;51.478;5.694;2023-12-20T00:47:30;6.10;99.90
46676;DHT22;32412;51.478;5.694;2023-12-20T00:49:56;6.00;99.90
46676;DHT22;32412;51.478;5.694;2023-12-20T00:52:22;6.00;99.90
46676;DHT22;32412;51.478;5.694;2023-12-20T00:54:48;6.00;99.90
46676;DHT22;32412;51.478;5.694;2023-12-20T00:57:14;6.00;99.90
46676;DHT22;32412;51.478;5.694;2023-12-20T00:59:40;5.90;99.90
46676;DHT22;32412;51.478;5.694;2023-12-20T01:02:06;5.80;99.90
46676;DHT22;32412;51.478;5.694;2023-12-20T01:04:31;5.80;99.90
46676;DHT22;32412;51.478;5.694;2023-12-20T01:06:57;5.80;99.90
46676;DHT22;32412;51.478;5.694;2023-12-20T01:09:23;5.80;99.90
46676;DHT22;32412;51.478;5.694;2023-12-20T01:11:52;5.80;99.90
46676;DHT22;32412;51.478;5.694;2023-12-20T01:14:17;5.80;99.90
46676;DHT22;32412;51.478;5.694;2023-12-20T01:16:43;5.70;99.90
46676;DHT22;32412;51.478;5.694;2023-12-20T01:19:09;5.70;99.90
46676;DHT22;32412;51.478;5.694;2023-12-20T01:21:34;5.70;99.90
46676;DHT22;32412;51.478;5.694;2023-12-20T01:24:00;5.60;99.90
46676;DHT22;32412;51.478;5.694;2023-12-20T01:26:25;5.60;99.90
46676;DHT22;32412;51.478;5.694;2023-12-20T01:28:51;5.60;99.90
46676;DHT22;32412;51.478;5.694;2023-12-20T01:31:17;5.60;99.90
46676;DHT22;32412;51.478;5.694;2023-12-20T01:33:42;5.60;99.90
46676;DHT22;32412;51.478;5.694;2023-12-20T01:36:08;5.60;99.90
46676;DHT22;32412;51.478;5.694;2023-12-20T01:38:34;5.60;99.90
46676;DHT22;32412;51.478;5.694;2023-12-20T01:41:00;5.50;99.90
46676;DHT22;32412;51.478;5.694;2023-12-20T01:43:26;5.50;99.90
46676;DHT22;32412;51.478;5.694;2023-12-20T01:45:51;5.50;99.90
46676;DHT22;32412;51.478;5.694;2023-12-20T01:48:18;5.60;99.90
46676;DHT22;32412;51.478;5.694;2023-12-20T01:50:45;5.60;99.90
46676;DHT22;32412;51.478;5.694;2023-12-20T01:53:12;5.70;99.90
46676;DHT22;32412;51.478;5.694;2023-12-20T01:55:40;5.70;99.90
46676;DHT22;32412;51.478;5.694;2023-12-20T01:58:09;5.80;99.90
46676;DHT22;32412;51.478;5.694;2023-12-20T02:00:37;5.80;99.90
46676;DHT22;32412;51.478;5.694;2023-12-20T02:03:03;5.80;99.90
46676;DHT22;32412;51.478;5.694;2023-12-20T02:05:35;5.90;99.90
46676;DHT22;32412;51.478;5.694;2023-12-20T02:08:02;5.90;99.90
46676;DHT22;32412;51.478;5.694;2023-12-20T02:10:28;5.90;99.90
46676;DHT22;32412;51.478;5.694;2023-12-20T02:12:54;5.80;99.90
46676;DHT22;32412;51.478;5.694;2023-12-20T02:15:20;5.80;99.90
46676;DHT22;32412;51.478;5.694;2023-12-20T02:17:47;5.80;99.90
46676;DHT22;32412;51.478;5.694;2023-12-20T02:20:14;5.70;99.90
46676;DHT22;32412;51.478;5.694;2023-12-20T02:22:39;5.70;99.90
46676;DHT22;32412;51.478;5.694;2023-12-20T02:25:05;5.70;99.90
46676;DHT22;32412;51.478;5.694;2023-12-20T02:27:31;5.70;99.90
46676;DHT22;32412;51.478;5.694;2023-12-20T02:29:57;5.70;99.90
46676;DHT22;32412;51.478;5.694;2023-12-20T02:32:24;5.70;99.90
46676;DHT22;32412;51.478;5.694;2023-12-20T02:34:53;5.60;99.90
46676;DHT22;32412;51.478;5.694;2023-12-20T02:37:19;5.60;99.90
46676;DHT22;32412;51.478;5.694;2023-12-20T02:39:44;5.70;99.90
46676;DHT22;32412;51.478;5.694;2023-12-20T02:42:10;5.70;99.90
46676;DHT22;32412;51.478;5.694;2023-12-20T02:44:36;5.70;99.90
46676;DHT22;32412;51.478;5.694;2023-12-20T02:47:02;5.70;99.90
46676;DHT22;32412;51.478;5.694;2023-12-20T02:49:28;5.70;99.90
46676;DHT22;32412;51.478;5.694;2023-12-20T02:51:53;5.60;99.90
46676;DHT22;32412;51.478;5.694;2023-12-20T02:54:19;5.60;99.90
46676;DHT22;32412;51.478;5.694;2023-12-20T02:56:44;5.60;99.90
46676;DHT22;32412;51.478;5.694;2023-12-20T02:59:10;5.60;99.90
46676;DHT22;32412;51.478;5.694;2023-12-20T03:01:42;5.60;99.90
46676;DHT22;32412;51.478;5.694;2023-12-20T03:04:08;5.60;99.90
46676;DHT22;32412;51.478;5.694;2023-12-20T03:06:33;5.60;99.90
46676;DHT22;32412;51.478;5.694;2023-12-20T03:08:59;5.60;99.90
46676;DHT22;32412;51.478;5.694;2023-12-20T03:11:28;5.60;99.90
46676;DHT22;32412;51.478;5.694;2023-12-20T03:13:55;5.70;99.90
46676;DHT22;32412;51.478;5.694;2023-12-20T03:16:20;5.70;99.90
46676;DHT22;32412;51.478;5.694;2023-12-20T03:18:46;5.70;99.90
46676;DHT22;32412;51.478;5.694;2023-12-20T03:21:11;5.70;99.90
46676;DHT22;32412;51.478;5.694;2023-12-20T03:23:37;5.70;99.90
46676;DHT22;32412;51.478;5.694;2023-12-20T03:26:03;5.70;99.90
46676;DHT22;32412;51.478;5.694;2023-12-20T03:28:29;5.70;99.90
46676;DHT22;32412;51.478;5.694;2023-12-20T03:30:55;5.70;99.90
46676;DHT22;32412;51.478;5.694;2023-12-20T03:33:21;5.70;99.90
46676;DHT22;32412;51.478;5.694;2023-12-20T03:35:46;5.70;99.90
46676;DHT22;32412;51.478;5.694;2023-12-20T03:38:12;5.80;99.90
46676;DHT22;32412;51.478;5.694;2023-12-20T03:40:38;5.70;99.90
46676;DHT22;32412;51.478;5.694;2023-12-20T03:43:03;5.70;99.90
46676;DHT22;32412;51.478;5.694;2023-12-20T03:45:29;5.60;99.90
46676;DHT22;32412;51.478;5.694;2023-12-20T03:47:55;5.60;99.90
46676;DHT22;32412;51.478;5.694;2023-12-20T03:50:22;5.60;99.90
46676;DHT22;32412;51.478;5.694;2023-12-20T03:52:48;5.60;99.90
46676;DHT22;32412;51.478;5.694;2023-12-20T03:55:14;5.50;99.90
46676;DHT22;32412;51.478;5.694;2023-12-20T03:57:40;5.60;99.90
46676;DHT22;32412;51.478;5.694;2023-12-20T04:00:07;5.60;99.90
46676;DHT22;32412;51.478;5.694;2023-12-20T04:02:37;5.70;99.90
46676;DHT22;32412;51.478;5.694;2023-12-20T04:05:03;5.70;99.90
46676;DHT22;32412;51.478;5.694;2023-12-20T04:07:29;5.80;99.90
46676;DHT22;32412;51.478;5.694;2023-12-20T04:09:55;5.80;99.90
46676;DHT22;32412;51.478;5.694;2023-12-20T04:12:20;5.90;99.90
46676;DHT22;32412;51.478;5.694;2023-12-20T04:14:46;5.90;99.90
46676;DHT22;32412;51.478;5.694;2023-12-20T04:17:12;5.90;99.90
46676;DHT22;32412;51.478;5.694;2023-12-20T04:19:37;5.90;99.90
46676;DHT22;32412;51.478;5.694;2023-12-20T04:22:03;5.90;99.90
46676;DHT22;32412;51.478;5.694;2023-12-20T04:24:29;6.00;99.90
46676;DHT22;32412;51.478;5.694;2023-12-20T04:26:55;6.00;99.90
46676;DHT22;32412;51.478;5.694;2023-12-20T04:29:20;6.00;99.90
46676;DHT22;32412;51.478;5.694;2023-12-20T04:31:46;6.00;99.90
46676;DHT22;32412;51.478;5.694;2023-12-20T04:34:11;6.10;99.90
46676;DHT22;32412;51.478;5.694;2023-12-20T04:36:37;6.10;99.90
46676;DHT22;32412;51.478;5.694;2023-12-20T04:39:03;6.10;99.90
46676;DHT22;32412;51.478;5.694;2023-12-20T04:41:28;6.10;99.90
46676;DHT22;32412;51.478;5.694;2023-12-20T04:43:54;6.10;99.90
46676;DHT22;32412;51.478;5.694;2023-12-20T04:46:19;6.10;99.90
46676;DHT22;32412;51.478;5.694;2023-12-20T04:48:45;6.10;99.90
46676;DHT22;32412;51.478;5.694;2023-12-20T04:51:11;6.10;99.90
46676;DHT22;32412;51.478;5.694;2023-12-20T04:53:36;6.20;99.90
46676;DHT22;32412;51.478;5.694;2023-12-20T04:56:02;6.20;99.90
46676;DHT22;32412;51.478;5.694;2023-12-20T04:58:28;6.20;99.90
46676;DHT22;32412;51.478;5.694;2023-12-20T05:00:54;6.20;99.90
46676;DHT22;32412;51.478;5.694;2023-12-20T05:03:19;6.30;99.90
46676;DHT22;32412;51.478;5.694;2023-12-20T05:05:45;6.30;99.90
46676;DHT22;32412;51.478;5.694;2023-12-20T05:08:13;6.30;99.90
46676;DHT22;32412;51.478;5.694;2023-12-20T05:10:38;6.30;99.90
46676;DHT22;32412;51.478;5.694;2023-12-20T05:13:06;6.30;99.90
46676;DHT22;32412;51.478;5.694;2023-12-20T05:15:31;6.30;99.90
46676;DHT22;32412;51.478;5.694;2023-12-20T05:17:57;6.30;99.90
46676;DHT22;32412;51.478;5.694;2023-12-20T05:20:22;6.30;99.90
46676;DHT22;32412;51.478;5.694;2023-12-20T05:22:48;6.30;99.90
46676;DHT22;32412;51.478;5.694;2023-12-20T05:25:14;6.30;99.90
46676;DHT22;32412;51.478;5.694;2023-12-20T05:27:40;6.40;99.90
46676;DHT22;32412;51.478;5.694;2023-12-20T05:30:06;6.40;99.90
46676;DHT22;32412;51.478;5.694;2023-12-20T05:32:32;6.40;99.90
46676;DHT22;32412;51.478;5.694;2023-12-20T05:34:57;6.30;99.90
46676;DHT22;32412;51.478;5.694;2023-12-20T05:37:23;6.40;99.90
46676;DHT22;32412;51.478;5.694;2023-12-20T05:39:49;6.40;99.90
46676;DHT22;32412;51.478;5.694;2023-12-20T05:42:14;6.40;99.90
46676;DHT22;32412;51.478;5.694;2023-12-20T05:44:40;6.40;99.90
46676;DHT22;32412;51.478;5.694;2023-12-20T05:47:06;6.50;99.90
46676;DHT22;32412;51.478;5.694;2023-12-20T05:49:31;6.40;99.90
46676;DHT22;32412;51.478;5.694;2023-12-20T05:51:57;6.50;99.90
46676;DHT22;32412;51.478;5.694;2023-12-20T05:54:26;6.40;99.90
46676;DHT22;32412;51.478;5.694;2023-12-20T05:56:51;6.40;99.90
46676;DHT22;32412;51.478;5.694;2023-12-20T05:59:17;6.50;99.90
46676;DHT22;32412;51.478;5.694;2023-12-20T06:01:43;6.50;99.90
46676;DHT22;32412;51.478;5.694;2023-12-20T06:04:08;6.50;99.90
46676;DHT22;32412;51.478;5.694;2023-12-20T06:06:34;6.60;99.90
46676;DHT22;32412;51.478;5.694;2023-12-20T06:09:06;6.50;99.90
46676;DHT22;32412;51.478;5.694;2023-12-20T06:11:32;6.60;99.90
46676;DHT22;32412;51.478;5.694;2023-12-20T06:13:57;6.60;99.90
46676;DHT22;32412;51.478;5.694;2023-12-20T06:16:26;6.60;99.90
46676;DHT22;32412;51.478;5.694;2023-12-20T06:18:51;6.60;99.90
46676;DHT22;32412;51.478;5.694;2023-12-20T06:21:18;6.60;99.90
46676;DHT22;32412;51.478;5.694;2023-12-20T06:23:43;6.60;99.90
46676;DHT22;32412;51.478;5.694;2023-12-20T06:26:09;6.60;99.90
46676;DHT22;32412;51.478;5.694;2023-12-20T06:28:35;6.60;99.90
46676;DHT22;32412;51.478;5.694;2023-12-20T06:31:00;6.60;99.90
46676;DHT22;32412;51.478;5.694;2023-12-20T06:33:26;6.60;99.90
46676;DHT22;32412;51.478;5.694;2023-12-20T06:35:52;6.60;99.90
46676;DHT22;32412;51.478;5.694;2023-12-20T06:38:18;6.50;99.90
46676;DHT22;32412;51.478;5.694;2023-12-20T06:40:44;6.60;99.90
46676;DHT22;32412;51.478;5.694;2023-12-20T06:43:12;6.60;99.90
46676;DHT22;32412;51.478;5.694;2023-12-20T06:45:38;6.60;99.90
46676;DHT22;32412;51.478;5.694;2023-12-20T06:48:04;6.60;99.90
46676;DHT22;32412;51.478;5.694;2023-12-20T06:50:30;6.50;99.90
46676;DHT22;32412;51.478;5.694;2023-12-20T06:52:56;6.40;99.90
46676;DHT22;32412;51.478;5.694;2023-12-20T06:55:22;6.40;99.90
46676;DHT22;32412;51.478;5.694;2023-12-20T06:57:47;6.30;99.90
46676;DHT22;32412;51.478;5.694;2023-12-20T07:00:13;6.30;99.90
46676;DHT22;32412;51.478;5.694;2023-12-20T07:02:39;6.30;99.90
46676;DHT22;32412;51.478;5.694;2023-12-20T07:05:05;6.30;99.90
46676;DHT22;32412;51.478;5.694;2023-12-20T07:07:31;6.30;99.90
46676;DHT22;32412;51.478;5.694;2023-12-20T07:09:57;6.30;99.90
46676;DHT22;32412;51.478;5.694;2023-12-20T07:12:22;6.40;99.90
46676;DHT22;32412;51.478;5.694;2023-12-20T07:14:48;6.40;99.90
46676;DHT22;32412;51.478;5.694;2023-12-20T07:17:14;6.40;99.90
46676;DHT22;32412;51.478;5.694;2023-12-20T07:19:41;6.30;99.90
46676;DHT22;32412;51.478;5.694;2023-12-20T07:22:07;6.40;99.90
46676;DHT22;32412;51.478;5.694;2023-12-20T07:24:33;6.40;99.90
46676;DHT22;32412;51.478;5.694;2023-12-20T07:27:00;6.40;99.90
46676;DHT22;32412;51.478;5.694;2023-12-20T07:29:26;6.40;99.90
46676;DHT22;32412;51.478;5.694;2023-12-20T07:31:53;6.40;99.90
46676;DHT22;32412;51.478;5.694;2023-12-20T07:34:20;6.40;99.90
46676;DHT22;32412;51.478;5.694;2023-12-20T07:36:45;6.40;99.90
46676;DHT22;32412;51.478;5.694;2023-12-20T07:39:11;6.40;99.90
46676;DHT22;32412;51.478;5.694;2023-12-20T07:41:37;6.40;99.90
46676;DHT22;32412;51.478;5.694;2023-12-20T07:44:03;6.40;99.90
46676;DHT22;32412;51.478;5.694;2023-12-20T07:46:29;6.40;99.90
46676;DHT22;32412;51.478;5.694;2023-12-20T07:48:55;6.50;99.90
46676;DHT22;32412;51.478;5.694;2023-12-20T07:51:20;6.40;99.90
46676;DHT22;32412;51.478;5.694;2023-12-20T07:53:46;6.50;99.90
46676;DHT22;32412;51.478;5.694;2023-12-20T07:56:19;6.50;99.90
46676;DHT22;32412;51.478;5.694;2023-12-20T07:58:45;6.60;99.90
46676;DHT22;32412;51.478;5.694;2023-12-20T08:01:13;6.50;99.90
46676;DHT22;32412;51.478;5.694;2023-12-20T08:03:39;6.60;99.90
46676;DHT22;32412;51.478;5.694;2023-12-20T08:06:04;6.60;99.90
46676;DHT22;32412;51.478;5.694;2023-12-20T08:08:30;6.60;99.90
46676;DHT22;32412;51.478;5.694;2023-12-20T08:10:56;6.60;99.90
46676;DHT22;32412;51.478;5.694;2023-12-20T08:13:26;6.60;99.90
46676;DHT22;32412;51.478;5.694;2023-12-20T08:15:52;6.60;99.90
46676;DHT22;32412;51.478;5.694;2023-12-20T08:18:18;6.70;99.90
46676;DHT22;32412;51.478;5.694;2023-12-20T08:20:44;6.70;99.90
46676;DHT22;32412;51.478;5.694;2023-12-20T08:23:13;6.70;99.90
46676;DHT22;32412;51.478;5.694;2023-12-20T08:25:41;6.70;99.90
46676;DHT22;32412;51.478;5.694;2023-12-20T08:28:07;6.70;99.90
46676;DHT22;32412;51.478;5.694;2023-12-20T08:30:32;6.80;99.90
46676;DHT22;32412;51.478;5.694;2023-12-20T08:33:01;6.80;99.90
46676;DHT22;32412;51.478;5.694;2023-12-20T08:35:28;6.90;99.90
46676;DHT22;32412;51.478;5.694;2023-12-20T08:37:53;6.90;99.90
46676;DHT22;32412;51.478;5.694;2023-12-20T08:40:19;6.90;99.90
46676;DHT22;32412;51.478;5.694;2023-12-20T08:42:45;6.90;99.90
46676;DHT22;32412;51.478;5.694;2023-12-20T08:45:11;6.90;99.90
46676;DHT22;32412;51.478;5.694;2023-12-20T08:47:37;6.90;99.90
46676;DHT22;32412;51.478;5.694;2023-12-20T08:50:03;6.90;99.90
46676;DHT22;32412;51.478;5.694;2023-12-20T08:52:29;6.90;99.90
46676;DHT22;32412;51.478;5.694;2023-12-20T09:20:48;7.00;99.90
46676;DHT22;32412;51.478;5.694;2023-12-20T10:36:31;7.40;99.90
46676;DHT22;32412;51.478;5.694;2023-12-20T10:38:57;7.40;99.90
46676;DHT22;32412;51.478;5.694;2023-12-20T10:41:31;7.30;99.90
46676;DHT22;32412;51.478;5.694;2023-12-20T10:43:59;7.40;99.90
46676;DHT22;32412;51.478;5.694;2023-12-20T10:46:29;7.40;99.90
46676;DHT22;32412;51.478;5.694;2023-12-20T10:48:58;7.40;99.90
46676;DHT22;32412;51.478;5.694;2023-12-20T10:51:25;7.40;99.90
46676;DHT22;32412;51.478;5.694;2023-12-20T10:53:55;7.40;99.90
46676;DHT22;32412;51.478;5.694;2023-12-20T10:56:21;7.40;99.90
46676;DHT22;32412;51.478;5.694;2023-12-20T10:58:49;7.40;99.90
46676;DHT22;32412;51.478;5.694;2023-12-20T11:01:17;7.40;99.90
46676;DHT22;32412;51.478;5.694;2023-12-20T11:03:53;7.40;99.90
46676;DHT22;32412;51.478;5.694;2023-12-20T11:09:24;7.40;99.90
46676;DHT22;32412;51.478;5.694;2023-12-20T11:12:15;7.40;99.90
46676;DHT22;32412;51.478;5.694;2023-12-20T11:14:49;7.40;99.90
46676;DHT22;32412;51.478;5.694;2023-12-20T11:17:15;7.40;99.90
46676;DHT22;32412;51.478;5.694;2023-12-20T11:22:29;7.40;99.90
46676;DHT22;32412;51.478;5.694;2023-12-20T11:25:05;7.40;99.90
46676;DHT22;32412;51.478;5.694;2023-12-20T11:27:34;7.50;99.90
46676;DHT22;32412;51.478;5.694;2023-12-20T11:30:03;7.60;99.90
46676;DHT22;32412;51.478;5.694;2023-12-20T11:32:34;7.60;99.90
46676;DHT22;32412;51.478;5.694;2023-12-20T11:37:35;7.60;99.90
46676;DHT22;32412;51.478;5.694;2023-12-20T11:40:06;7.50;99.90
46676;DHT22;32412;51.478;5.694;2023-12-20T11:42:42;7.50;99.90
46676;DHT22;32412;51.478;5.694;2023-12-20T11:45:13;7.50;99.90
46676;DHT22;32412;51.478;5.694;2023-12-20T11:47:45;7.40;99.90
46676;DHT22;32412;51.478;5.694;2023-12-20T11:50:11;7.30;99.90
46676;DHT22;32412;51.478;5.694;2023-12-20T11:52:37;7.30;99.90
46676;DHT22;32412;51.478;5.694;2023-12-20T11:55:03;7.30;99.90
46676;DHT22;32412;51.478;5.694;2023-12-20T11:57:30;7.30;99.90
46676;DHT22;32412;51.478;5.694;2023-12-20T11:59:56;7.20;99.90
46676;DHT22;32412;51.478;5.694;2023-12-20T13:33:59;7.90;99.90
46676;DHT22;32412;51.478;5.694;2023-12-20T13:45:52;7.90;99.90
46676;DHT22;32412;51.478;5.694;2023-12-20T13:51:50;8.00;99.90
46676;DHT22;32412;51.478;5.694;2023-12-20T13:54:15;8.00;99.90
46676;DHT22;32412;51.478;5.694;2023-12-20T13:56:54;8.00;99.90
46676;DHT22;32412;51.478;5.694;2023-12-20T13:59:20;7.90;99.90
46676;DHT22;32412;51.478;5.694;2023-12-20T14:01:46;7.90;99.90
46676;DHT22;32412;51.478;5.694;2023-12-20T14:04:11;7.90;99.90
46676;DHT22;32412;51.478;5.694;2023-12-20T14:06:37;7.90;99.90
46676;DHT22;32412;51.478;5.694;2023-12-20T14:09:03;7.90;99.90
46676;DHT22;32412;51.478;5.694;2023-12-20T14:11:52;7.80;99.90
46676;DHT22;32412;51.478;5.694;2023-12-20T14:25:53;7.90;99.90
46676;DHT22;32412;51.478;5.694;2023-12-20T14:31:44;8.00;99.90
46676;DHT22;32412;51.478;5.694;2023-12-20T14:37:42;7.90;99.90
46676;DHT22;32412;51.478;5.694;2023-12-20T14:40:10;7.90;99.90
46676;DHT22;32412;51.478;5.694;2023-12-20T14:43:01;7.90;99.90
46676;DHT22;32412;51.478;5.694;2023-12-20T14:45:39;7.90;99.90
46676;DHT22;32412;51.478;5.694;2023-12-20T14:48:09;7.90;99.90
46676;DHT22;32412;51.478;5.694;2023-12-20T14:50:51;7.90;99.90
46676;DHT22;32412;51.478;5.694;2023-12-20T14:56:47;7.90;99.90
46676;DHT22;32412;51.478;5.694;2023-12-20T15:02:45;7.90;99.90
46676;DHT22;32412;51.478;5.694;2023-12-20T15:05:11;7.90;99.90
46676;DHT22;32412;51.478;5.694;2023-12-20T15:07:37;7.90;99.90
46676;DHT22;32412;51.478;5.694;2023-12-20T15:10:03;7.90;99.90
46676;DHT22;32412;51.478;5.694;2023-12-20T15:12:29;7.90;99.90
46676;DHT22;32412;51.478;5.694;2023-12-20T15:14:55;7.90;99.90
46676;DHT22;32412;51.478;5.694;2023-12-20T15:17:21;7.90;99.90
46676;DHT22;32412;51.478;5.694;2023-12-20T15:19:46;7.90;99.90
46676;DHT22;32412;51.478;5.694;2023-12-20T15:22:12;7.90;99.90
46676;DHT22;32412;51.478;5.694;2023-12-20T15:24:40;7.90;99.90
46676;DHT22;32412;51.478;5.694;2023-12-20T15:27:07;7.90;99.90
46676;DHT22;32412;51.478;5.694;2023-12-20T15:29:34;7.90;99.90
46676;DHT22;32412;51.478;5.694;2023-12-20T15:31:59;8.00;99.90
46676;DHT22;32412;51.478;5.694;2023-12-20T15:34:25;8.00;99.90
46676;DHT22;32412;51.478;5.694;2023-12-20T15:36:53;8.00;99.90
46676;DHT22;32412;51.478;5.694;2023-12-20T15:39:19;8.00;99.90
46676;DHT22;32412;51.478;5.694;2023-12-20T15:41:45;8.00;99.90
46676;DHT22;32412;51.478;5.694;2023-12-20T15:44:10;8.00;99.90
46676;DHT22;32412;51.478;5.694;2023-12-20T15:46:39;8.00;99.90
46676;DHT22;32412;51.478;5.694;2023-12-20T15:49:05;8.00;99.90
46676;DHT22;32412;51.478;5.694;2023-12-20T16:01:51;7.90;99.90
46676;DHT22;32412;51.478;5.694;2023-12-20T16:04:19;7.90;99.90
46676;DHT22;32412;51.478;5.694;2023-12-20T16:06:45;7.90;99.90
46676;DHT22;32412;51.478;5.694;2023-12-20T16:09:10;7.90;99.90
46676;DHT22;32412;51.478;5.694;2023-12-20T16:21:03;7.90;99.90
46676;DHT22;32412;51.478;5.694;2023-12-20T16:23:33;7.90;99.90
46676;DHT22;32412;51.478;5.694;2023-12-20T16:26:07;7.80;99.90
46676;DHT22;32412;51.478;5.694;2023-12-20T16:28:39;7.80;99.90
46676;DHT22;32412;51.478;5.694;2023-12-20T16:41:32;7.80;99.90
46676;DHT22;32412;51.478;5.694;2023-12-20T16:43:58;7.80;99.90
46676;DHT22;32412;51.478;5.694;2023-12-20T16:46:27;7.80;99.90
46676;DHT22;32412;51.478;5.694;2023-12-20T16:48:52;7.70;99.90
46676;DHT22;32412;51.478;5.694;2023-12-20T16:51:18;7.70;99.90
46676;DHT22;32412;51.478;5.694;2023-12-20T16:53:44;7.70;99.90
46676;DHT22;32412;51.478;5.694;2023-12-20T16:56:13;7.80;99.90
46676;DHT22;32412;51.478;5.694;2023-12-20T16:58:39;7.80;99.90
46676;DHT22;32412;51.478;5.694;2023-12-20T17:01:05;7.80;99.90
46676;DHT22;32412;51.478;5.694;2023-12-20T17:03:32;7.80;99.90
46676;DHT22;32412;51.478;5.694;2023-12-20T17:05:58;7.80;99.90
46676;DHT22;32412;51.478;5.694;2023-12-20T17:08:24;7.80;99.90
46676;DHT22;32412;51.478;5.694;2023-12-20T17:10:52;7.80;99.90
46676;DHT22;32412;51.478;5.694;2023-12-20T17:13:20;7.80;99.90
46676;DHT22;32412;51.478;5.694;2023-12-20T17:15:46;7.80;99.90
46676;DHT22;32412;51.478;5.694;2023-12-20T17:18:12;7.80;99.90
46676;DHT22;32412;51.478;5.694;2023-12-20T17:20:38;7.80;99.90
46676;DHT22;32412;51.478;5.694;2023-12-20T17:23:04;7.80;99.90
46676;DHT22;32412;51.478;5.694;2023-12-20T17:25:29;7.90;99.90
46676;DHT22;32412;51.478;5.694;2023-12-20T17:27:56;7.90;99.90
46676;DHT22;32412;51.478;5.694;2023-12-20T17:30:23;7.90;99.90
46676;DHT22;32412;51.478;5.694;2023-12-20T17:32:49;7.90;99.90
46676;DHT22;32412;51.478;5.694;2023-12-20T17:35:19;7.90;99.90
46676;DHT22;32412;51.478;5.694;2023-12-20T17:37:46;7.80;99.90
46676;DHT22;32412;51.478;5.694;2023-12-20T17:40:12;7.90;99.90
46676;DHT22;32412;51.478;5.694;2023-12-20T17:42:47;7.90;99.90
46676;DHT22;32412;51.478;5.694;2023-12-20T17:45:19;7.90;99.90
46676;DHT22;32412;51.478;5.694;2023-12-20T17:50:49;7.80;99.90
46676;DHT22;32412;51.478;5.694;2023-12-20T17:54:04;7.80;99.90
46676;DHT22;32412;51.478;5.694;2023-12-20T17:56:58;7.90;99.90
46676;DHT22;32412;51.478;5.694;2023-12-20T17:59:33;7.90;99.90
46676;DHT22;32412;51.478;5.694;2023-12-20T18:05:26;7.90;99.90
46676;DHT22;32412;51.478;5.694;2023-12-20T18:07:52;7.90;99.90
46676;DHT22;32412;51.478;5.694;2023-12-20T18:10:21;7.90;99.90
46676;DHT22;32412;51.478;5.694;2023-12-20T18:12:47;7.90;99.90
46676;DHT22;32412;51.478;5.694;2023-12-20T18:15:13;7.90;99.90
46676;DHT22;32412;51.478;5.694;2023-12-20T18:17:39;7.90;99.90
46676;DHT22;32412;51.478;5.694;2023-12-20T18:20:07;7.90;99.90
46676;DHT22;32412;51.478;5.694;2023-12-20T18:22:33;7.90;99.90
46676;DHT22;32412;51.478;5.694;2023-12-20T18:25:01;7.90;99.90
46676;DHT22;32412;51.478;5.694;2023-12-20T18:27:27;7.90;99.90
46676;DHT22;32412;51.478;5.694;2023-12-20T18:29:53;8.00;99.90
46676;DHT22;32412;51.478;5.694;2023-12-20T18:32:19;8.00;99.90
46676;DHT22;32412;51.478;5.694;2023-12-20T18:34:50;8.00;99.90
46676;DHT22;32412;51.478;5.694;2023-12-20T18:37:20;8.00;99.90
46676;DHT22;32412;51.478;5.694;2023-12-20T18:39:46;8.10;99.90
46676;DHT22;32412;51.478;5.694;2023-12-20T18:42:12;8.10;99.90
46676;DHT22;32412;51.478;5.694;2023-12-20T18:44:38;8.20;99.90
46676;DHT22;32412;51.478;5.694;2023-12-20T18:47:04;8.20;99.90
46676;DHT22;32412;51.478;5.694;2023-12-20T18:49:30;8.20;99.90
46676;DHT22;32412;51.478;5.694;2023-12-20T18:51:56;8.20;99.90
46676;DHT22;32412;51.478;5.694;2023-12-20T18:54:22;8.30;99.90
46676;DHT22;32412;51.478;5.694;2023-12-20T18:56:47;8.30;99.90
46676;DHT22;32412;51.478;5.694;2023-12-20T18:59:15;8.30;99.90
46676;DHT22;32412;51.478;5.694;2023-12-20T19:01:45;8.30;99.90
46676;DHT22;32412;51.478;5.694;2023-12-20T19:04:11;8.40;99.90
46676;DHT22;32412;51.478;5.694;2023-12-20T19:06:36;8.40;99.90
46676;DHT22;32412;51.478;5.694;2023-12-20T19:09:02;8.40;99.90
46676;DHT22;32412;51.478;5.694;2023-12-20T19:11:34;8.50;99.90
46676;DHT22;32412;51.478;5.694;2023-12-20T19:14:09;8.50;99.90
46676;DHT22;32412;51.478;5.694;2023-12-20T19:16:38;8.50;99.90
46676;DHT22;32412;51.478;5.694;2023-12-20T19:19:04;8.60;99.90
46676;DHT22;32412;51.478;5.694;2023-12-20T19:21:29;8.60;99.90
46676;DHT22;32412;51.478;5.694;2023-12-20T19:23:55;8.60;99.90
46676;DHT22;32412;51.478;5.694;2023-12-20T19:26:21;8.60;99.90
46676;DHT22;32412;51.478;5.694;2023-12-20T19:28:46;8.60;99.90
46676;DHT22;32412;51.478;5.694;2023-12-20T19:31:13;8.60;99.90
46676;DHT22;32412;51.478;5.694;2023-12-20T19:33:40;8.60;99.90
46676;DHT22;32412;51.478;5.694;2023-12-20T19:36:08;8.50;99.90
46676;DHT22;32412;51.478;5.694;2023-12-20T19:38:37;8.50;99.90
46676;DHT22;32412;51.478;5.694;2023-12-20T19:41:03;8.40;99.90
46676;DHT22;32412;51.478;5.694;2023-12-20T19:43:29;8.40;99.90
46676;DHT22;32412;51.478;5.694;2023-12-20T19:45:55;8.40;99.90
46676;DHT22;32412;51.478;5.694;2023-12-20T19:48:21;8.40;99.90
46676;DHT22;32412;51.478;5.694;2023-12-20T19:50:46;8.40;99.90
46676;DHT22;32412;51.478;5.694;2023-12-20T19:53:13;8.40;99.90
46676;DHT22;32412;51.478;5.694;2023-12-20T19:55:39;8.50;99.90
46676;DHT22;32412;51.478;5.694;2023-12-20T19:58:06;8.50;99.90
46676;DHT22;32412;51.478;5.694;2023-12-20T20:00:32;8.40;99.90
46676;DHT22;32412;51.478;5.694;2023-12-20T20:02:58;8.50;99.90
46676;DHT22;32412;51.478;5.694;2023-12-20T20:05:27;8.50;99.90
46676;DHT22;32412;51.478;5.694;2023-12-20T20:07:52;8.60;99.90
46676;DHT22;32412;51.478;5.694;2023-12-20T20:10:18;8.60;99.90
46676;DHT22;32412;51.478;5.694;2023-12-20T20:12:44;8.60;99.90
46676;DHT22;32412;51.478;5.694;2023-12-20T20:15:10;8.60;99.90
46676;DHT22;32412;51.478;5.694;2023-12-20T20:17:39;8.60;99.90